sensor_id;sensor_type;location;lat;lon;timestamp;temperature;humidity
24326;DHT22;12448;45.532;5.290;2024-02-21T00:02:20;7.60;99.90
24326;DHT22;12448;45.532;5.290;2024-02-21T00:04:45;7.60;99.90
24326;DHT22;12448;45.532;5.290;2024-02-21T00:07:11;7.80;99.90
24326;DHT22;12448;45.532;5.290;2024-02-21T00:09:37;7.60;99.90
24326;DHT22;12448;45.532;5.290;2024-02-21T00:12:02;7.60;99.90
24326;DHT22;12448;45.532;5.290;2024-02-21T00:14:28;7.90;99.90
24326;DHT22;12448;45.532;5.290;2024-02-21T00:16:54;7.60;99.90
24326;DHT22;12448;45.532;5.290;2024-02-21T00:19:19;7.50;99.90
24326;DHT22;12448;45.532;5.290;2024-02-21T00:21:46;7.60;99.90
24326;DHT22;12448;45.532;5.290;2024-02-21T00:24:11;7.60;99.90
24326;DHT22;12448;45.532;5.290;2024-02-21T00:26:37;7.70;99.90
24326;DHT22;12448;45.532;5.290;2024-02-21T00:29:03;7.90;99.90
24326;DHT22;12448;45.532;5.290;2024-02-21T00:31:29;8.00;99.90
24326;DHT22;12448;45.532;5.290;2024-02-21T00:33:54;7.90;99.90
24326;DHT22;12448;45.532;5.290;2024-02-21T00:36:20;8.00;99.90
24326;DHT22;12448;45.532;5.290;2024-02-21T00:38:45;8.00;99.90
24326;DHT22;12448;45.532;5.290;2024-02-21T00:41:11;8.40;99.90
24326;DHT22;12448;45.532;5.290;2024-02-21T00:43:37;8.20;99.90
24326;DHT22;12448;45.532;5.290;2024-02-21T00:46:05;8.30;99.90
24326;DHT22;12448;45.532;5.290;2024-02-21T00:48:30;8.00;99.90
24326;DHT22;12448;45.532;5.290;2024-02-21T00:50:56;8.50;99.90
24326;DHT22;12448;45.532;5.290;2024-02-21T00:53:22;8.00;99.90
24326;DHT22;12448;45.532;5.290;2024-02-21T00:55:47;8.00;99.90
24326;DHT22;12448;45.532;5.290;2024-02-21T00:58:13;8.00;99.90
24326;DHT22;12448;45.532;5.290;2024-02-21T01:00:39;8.00;99.80
24326;DHT22;12448;45.532;5.290;2024-02-21T01:03:04;8.00;99.70
24326;DHT22;12448;45.532;5.290;2024-02-21T01:05:30;7.80;99.70
24326;DHT22;12448;45.532;5.290;2024-02-21T01:07:56;7.90;99.70
24326;DHT22;12448;45.532;5.290;2024-02-21T01:10:21;8.20;99.90
24326;DHT22;12448;45.532;5.290;2024-02-21T01:12:48;7.90;99.90
24326;DHT22;12448;45.532;5.290;2024-02-21T01:15:13;8.00;99.90
24326;DHT22;12448;45.532;5.290;2024-02-21T01:17:39;7.90;99.90
24326;DHT22;12448;45.532;5.290;2024-02-21T01:20:06;7.90;99.90
24326;DHT22;12448;45.532;5.290;2024-02-21T01:22:32;7.90;99.80
24326;DHT22;12448;45.532;5.290;2024-02-21T01:24:58;7.70;99.80
24326;DHT22;12448;45.532;5.290;2024-02-21T01:27:23;7.90;99.70
24326;DHT22;12448;45.532;5.290;2024-02-21T01:29:52;8.10;99.90
24326;DHT22;12448;45.532;5.290;2024-02-21T01:32:17;7.80;99.80
24326;DHT22;12448;45.532;5.290;2024-02-21T01:34:44;7.80;99.90
24326;DHT22;12448;45.532;5.290;2024-02-21T01:37:10;7.90;99.80
24326;DHT22;12448;45.532;5.290;2024-02-21T01:39:37;7.70;99.60
24326;DHT22;12448;45.532;5.290;2024-02-21T01:42:02;7.70;99.60
24326;DHT22;12448;45.532;5.290;2024-02-21T01:44:28;7.70;99.90
24326;DHT22;12448;45.532;5.290;2024-02-21T01:46:54;7.90;99.90
24326;DHT22;12448;45.532;5.290;2024-02-21T01:49:20;7.60;99.80
24326;DHT22;12448;45.532;5.290;2024-02-21T01:51:47;7.90;99.90
24326;DHT22;12448;45.532;5.290;2024-02-21T01:54:17;7.50;99.60
24326;DHT22;12448;45.532;5.290;2024-02-21T01:56:44;7.50;99.90
24326;DHT22;12448;45.532;5.290;2024-02-21T01:59:12;7.70;99.90
24326;DHT22;12448;45.532;5.290;2024-02-21T02:01:39;7.20;99.90
24326;DHT22;12448;45.532;5.290;2024-02-21T02:04:05;6.90;99.90
24326;DHT22;12448;45.532;5.290;2024-02-21T02:06:31;7.40;99.90
24326;DHT22;12448;45.532;5.290;2024-02-21T02:08:57;6.90;99.90
24326;DHT22;12448;45.532;5.290;2024-02-21T02:11:22;7.40;99.90
24326;DHT22;12448;45.532;5.290;2024-02-21T02:13:48;7.00;99.90
24326;DHT22;12448;45.532;5.290;2024-02-21T02:16:14;6.80;99.90
24326;DHT22;12448;45.532;5.290;2024-02-21T02:18:39;7.20;99.90
24326;DHT22;12448;45.532;5.290;2024-02-21T02:21:11;6.90;99.90
24326;DHT22;12448;45.532;5.290;2024-02-21T02:23:39;7.00;99.90
24326;DHT22;12448;45.532;5.290;2024-02-21T02:26:05;7.70;99.90
24326;DHT22;12448;45.532;5.290;2024-02-21T02:28:32;7.00;99.90
24326;DHT22;12448;45.532;5.290;2024-02-21T02:30:58;7.50;99.90
24326;DHT22;12448;45.532;5.290;2024-02-21T02:33:24;7.60;99.90
24326;DHT22;12448;45.532;5.290;2024-02-21T02:35:52;7.70;99.90
24326;DHT22;12448;45.532;5.290;2024-02-21T02:38:18;7.20;99.90
24326;DHT22;12448;45.532;5.290;2024-02-21T02:40:44;7.10;99.90
24326;DHT22;12448;45.532;5.290;2024-02-21T02:43:09;7.30;99.90
24326;DHT22;12448;45.532;5.290;2024-02-21T02:45:35;7.40;99.90
24326;DHT22;12448;45.532;5.290;2024-02-21T02:48:01;7.40;99.90
24326;DHT22;12448;45.532;5.290;2024-02-21T02:50:27;7.40;99.90
24326;DHT22;12448;45.532;5.290;2024-02-21T02:52:53;7.50;99.90
24326;DHT22;12448;45.532;5.290;2024-02-21T02:55:20;7.90;99.90
24326;DHT22;12448;45.532;5.290;2024-02-21T02:57:46;7.50;99.90
24326;DHT22;12448;45.532;5.290;2024-02-21T03:00:12;7.50;99.90
24326;DHT22;12448;45.532;5.290;2024-02-21T03:02:43;7.50;99.90
24326;DHT22;12448;45.532;5.290;2024-02-21T03:05:19;7.50;99.90
24326;DHT22;12448;45.532;5.290;2024-02-21T03:07:46;7.50;99.90
24326;DHT22;12448;45.532;5.290;2024-02-21T03:10:12;7.50;99.90
24326;DHT22;12448;45.532;5.290;2024-02-21T03:12:38;7.50;99.90
24326;DHT22;12448;45.532;5.290;2024-02-21T03:15:05;7.50;99.90
24326;DHT22;12448;45.532;5.290;2024-02-21T03:17:31;7.50;99.90
24326;DHT22;12448;45.532;5.290;2024-02-21T03:19:58;7.50;99.90
24326;DHT22;12448;45.532;5.290;2024-02-21T03:22:25;7.80;99.90
24326;DHT22;12448;45.532;5.290;2024-02-21T03:24:51;8.00;99.90
24326;DHT22;12448;45.532;5.290;2024-02-21T03:27:16;8.00;99.90
24326;DHT22;12448;45.532;5.290;2024-02-21T03:29:42;7.60;99.90
24326;DHT22;12448;45.532;5.290;2024-02-21T03:32:08;7.90;99.90
24326;DHT22;12448;45.532;5.290;2024-02-21T03:34:33;7.50;99.90
24326;DHT22;12448;45.532;5.290;2024-02-21T03:36:59;8.20;99.90
24326;DHT22;12448;45.532;5.290;2024-02-21T03:39:25;7.90;99.90
24326;DHT22;12448;45.532;5.290;2024-02-21T03:41:51;7.40;99.90
24326;DHT22;12448;45.532;5.290;2024-02-21T03:44:17;7.40;99.90
24326;DHT22;12448;45.532;5.290;2024-02-21T03:46:42;7.40;99.90
24326;DHT22;12448;45.532;5.290;2024-02-21T03:49:08;7.70;99.90
24326;DHT22;12448;45.532;5.290;2024-02-21T03:51:34;7.40;99.90
24326;DHT22;12448;45.532;5.290;2024-02-21T03:53:59;7.40;99.90
24326;DHT22;12448;45.532;5.290;2024-02-21T03:56:25;7.40;99.90
24326;DHT22;12448;45.532;5.290;2024-02-21T03:58:51;7.80;99.90
24326;DHT22;12448;45.532;5.290;2024-02-21T04:01:16;7.30;99.90
24326;DHT22;12448;45.532;5.290;2024-02-21T04:03:43;7.70;99.90
24326;DHT22;12448;45.532;5.290;2024-02-21T04:06:09;7.20;99.90
24326;DHT22;12448;45.532;5.290;2024-02-21T04:08:35;7.70;99.90
24326;DHT22;12448;45.532;5.290;2024-02-21T04:11:01;7.50;99.90
24326;DHT22;12448;45.532;5.290;2024-02-21T04:13:26;7.80;99.90
24326;DHT22;12448;45.532;5.290;2024-02-21T04:15:52;7.20;99.90
24326;DHT22;12448;45.532;5.290;2024-02-21T04:18:18;7.20;99.90
24326;DHT22;12448;45.532;5.290;2024-02-21T04:20:43;7.40;99.90
24326;DHT22;12448;45.532;5.290;2024-02-21T04:23:09;7.20;99.90
24326;DHT22;12448;45.532;5.290;2024-02-21T04:25:35;7.10;99.90
24326;DHT22;12448;45.532;5.290;2024-02-21T04:28:00;7.10;99.90
24326;DHT22;12448;45.532;5.290;2024-02-21T04:30:26;7.20;99.90
24326;DHT22;12448;45.532;5.290;2024-02-21T04:32:52;7.30;99.90
24326;DHT22;12448;45.532;5.290;2024-02-21T04:35:17;7.30;99.90
24326;DHT22;12448;45.532;5.290;2024-02-21T04:37:43;7.30;99.90
24326;DHT22;12448;45.532;5.290;2024-02-21T04:40:10;7.40;99.90
24326;DHT22;12448;45.532;5.290;2024-02-21T04:42:36;7.30;99.90
24326;DHT22;12448;45.532;5.290;2024-02-21T04:45:01;7.30;99.90
24326;DHT22;12448;45.532;5.290;2024-02-21T04:47:27;7.40;99.90
24326;DHT22;12448;45.532;5.290;2024-02-21T04:49:53;7.40;99.90
24326;DHT22;12448;45.532;5.290;2024-02-21T04:52:19;7.50;99.90
24326;DHT22;12448;45.532;5.290;2024-02-21T04:54:45;7.50;99.90
24326;DHT22;12448;45.532;5.290;2024-02-21T04:57:10;7.90;99.90
24326;DHT22;12448;45.532;5.290;2024-02-21T04:59:36;7.60;99.90
24326;DHT22;12448;45.532;5.290;2024-02-21T05:02:02;8.00;99.90
24326;DHT22;12448;45.532;5.290;2024-02-21T05:04:28;7.60;99.90
24326;DHT22;12448;45.532;5.290;2024-02-21T05:06:53;7.60;99.90
24326;DHT22;12448;45.532;5.290;2024-02-21T05:09:20;7.50;99.90
24326;DHT22;12448;45.532;5.290;2024-02-21T05:11:45;7.40;99.90
24326;DHT22;12448;45.532;5.290;2024-02-21T05:14:11;7.30;99.90
24326;DHT22;12448;45.532;5.290;2024-02-21T05:16:38;7.20;99.90
24326;DHT22;12448;45.532;5.290;2024-02-21T05:19:05;7.20;99.90
24326;DHT22;12448;45.532;5.290;2024-02-21T05:21:30;7.10;99.90
24326;DHT22;12448;45.532;5.290;2024-02-21T05:23:56;7.10;99.90
24326;DHT22;12448;45.532;5.290;2024-02-21T05:26:25;7.10;99.90
24326;DHT22;12448;45.532;5.290;2024-02-21T05:28:51;7.10;99.90
24326;DHT22;12448;45.532;5.290;2024-02-21T05:31:20;7.30;99.90
24326;DHT22;12448;45.532;5.290;2024-02-21T05:33:47;7.00;99.90
24326;DHT22;12448;45.532;5.290;2024-02-21T05:36:13;6.90;99.90
24326;DHT22;12448;45.532;5.290;2024-02-21T05:38:39;6.90;99.90
24326;DHT22;12448;45.532;5.290;2024-02-21T05:41:05;6.90;99.90
24326;DHT22;12448;45.532;5.290;2024-02-21T05:43:31;7.30;99.90
24326;DHT22;12448;45.532;5.290;2024-02-21T05:45:57;7.00;99.90
24326;DHT22;12448;45.532;5.290;2024-02-21T05:48:23;7.10;99.90
24326;DHT22;12448;45.532;5.290;2024-02-21T05:50:49;7.10;99.90
24326;DHT22;12448;45.532;5.290;2024-02-21T05:53:14;7.20;99.90
24326;DHT22;12448;45.532;5.290;2024-02-21T05:55:40;7.40;99.90
24326;DHT22;12448;45.532;5.290;2024-02-21T05:58:06;7.30;99.90
24326;DHT22;12448;45.532;5.290;2024-02-21T06:00:33;7.40;99.90
24326;DHT22;12448;45.532;5.290;2024-02-21T06:02:59;7.40;99.90
24326;DHT22;12448;45.532;5.290;2024-02-21T06:05:25;7.40;99.90
24326;DHT22;12448;45.532;5.290;2024-02-21T06:07:50;7.40;99.90
24326;DHT22;12448;45.532;5.290;2024-02-21T06:10:16;7.70;99.90
24326;DHT22;12448;45.532;5.290;2024-02-21T06:12:42;7.40;99.90
24326;DHT22;12448;45.532;5.290;2024-02-21T06:15:08;7.40;99.90
24326;DHT22;12448;45.532;5.290;2024-02-21T06:17:33;7.40;99.90
24326;DHT22;12448;45.532;5.290;2024-02-21T06:19:59;7.40;99.90
24326;DHT22;12448;45.532;5.290;2024-02-21T06:22:25;7.40;99.90
24326;DHT22;12448;45.532;5.290;2024-02-21T06:24:50;7.90;99.90
24326;DHT22;12448;45.532;5.290;2024-02-21T06:27:16;7.80;99.90
24326;DHT22;12448;45.532;5.290;2024-02-21T06:29:42;7.40;99.90
24326;DHT22;12448;45.532;5.290;2024-02-21T06:32:08;7.90;99.90
24326;DHT22;12448;45.532;5.290;2024-02-21T06:34:34;7.50;99.90
24326;DHT22;12448;45.532;5.290;2024-02-21T06:37:00;7.40;99.90
24326;DHT22;12448;45.532;5.290;2024-02-21T06:39:25;7.50;99.90
24326;DHT22;12448;45.532;5.290;2024-02-21T06:41:51;7.50;99.90
24326;DHT22;12448;45.532;5.290;2024-02-21T06:44:19;7.40;99.90
24326;DHT22;12448;45.532;5.290;2024-02-21T06:46:45;7.50;99.90
24326;DHT22;12448;45.532;5.290;2024-02-21T06:49:10;7.40;99.90
24326;DHT22;12448;45.532;5.290;2024-02-21T06:51:44;7.50;99.90
24326;DHT22;12448;45.532;5.290;2024-02-21T06:54:10;7.40;99.90
24326;DHT22;12448;45.532;5.290;2024-02-21T06:56:36;7.40;99.90
24326;DHT22;12448;45.532;5.290;2024-02-21T06:59:03;7.40;99.90
24326;DHT22;12448;45.532;5.290;2024-02-21T07:01:29;7.60;99.90
24326;DHT22;12448;45.532;5.290;2024-02-21T07:03:55;7.90;99.90
24326;DHT22;12448;45.532;5.290;2024-02-21T07:06:21;7.90;99.90
24326;DHT22;12448;45.532;5.290;2024-02-21T07:08:47;7.70;99.90
24326;DHT22;12448;45.532;5.290;2024-02-21T07:11:13;7.40;99.90
24326;DHT22;12448;45.532;5.290;2024-02-21T07:13:38;7.40;99.90
24326;DHT22;12448;45.532;5.290;2024-02-21T07:16:05;7.50;99.90
24326;DHT22;12448;45.532;5.290;2024-02-21T07:18:30;7.50;99.90
24326;DHT22;12448;45.532;5.290;2024-02-21T07:20:56;7.50;99.90
24326;DHT22;12448;45.532;5.290;2024-02-21T07:23:22;7.50;99.90
24326;DHT22;12448;45.532;5.290;2024-02-21T07:25:47;7.70;99.90
24326;DHT22;12448;45.532;5.290;2024-02-21T07:28:13;7.50;99.90
24326;DHT22;12448;45.532;5.290;2024-02-21T07:30:39;7.50;99.90
24326;DHT22;12448;45.532;5.290;2024-02-21T07:33:05;7.50;99.90
24326;DHT22;12448;45.532;5.290;2024-02-21T07:35:32;7.60;99.90
24326;DHT22;12448;45.532;5.290;2024-02-21T07:37:58;7.50;99.90
24326;DHT22;12448;45.532;5.290;2024-02-21T07:40:24;7.50;99.90
24326;DHT22;12448;45.532;5.290;2024-02-21T07:42:49;7.80;99.90
24326;DHT22;12448;45.532;5.290;2024-02-21T07:45:15;7.50;99.90
24326;DHT22;12448;45.532;5.290;2024-02-21T07:47:41;7.50;99.90
24326;DHT22;12448;45.532;5.290;2024-02-21T07:50:07;7.60;99.90
24326;DHT22;12448;45.532;5.290;2024-02-21T07:52:33;7.60;99.90
24326;DHT22;12448;45.532;5.290;2024-02-21T07:54:58;8.00;99.90
24326;DHT22;12448;45.532;5.290;2024-02-21T07:57:24;7.60;99.90
24326;DHT22;12448;45.532;5.290;2024-02-21T07:59:50;7.70;99.90
24326;DHT22;12448;45.532;5.290;2024-02-21T08:02:16;7.70;99.90
24326;DHT22;12448;45.532;5.290;2024-02-21T08:04:42;7.80;99.90
24326;DHT22;12448;45.532;5.290;2024-02-21T08:07:08;7.80;99.90
24326;DHT22;12448;45.532;5.290;2024-02-21T08:09:34;7.90;99.90
24326;DHT22;12448;45.532;5.290;2024-02-21T08:12:00;7.90;99.90
24326;DHT22;12448;45.532;5.290;2024-02-21T08:14:25;7.90;99.90
24326;DHT22;12448;45.532;5.290;2024-02-21T08:16:51;8.00;99.90
24326;DHT22;12448;45.532;5.290;2024-02-21T08:19:19;7.90;99.90
24326;DHT22;12448;45.532;5.290;2024-02-21T08:21:45;7.80;99.90
24326;DHT22;12448;45.532;5.290;2024-02-21T08:24:16;8.00;99.90
24326;DHT22;12448;45.532;5.290;2024-02-21T08:26:43;8.00;99.90
24326;DHT22;12448;45.532;5.290;2024-02-21T08:29:10;8.00;99.90
24326;DHT22;12448;45.532;5.290;2024-02-21T08:31:36;8.10;99.90
24326;DHT22;12448;45.532;5.290;2024-02-21T08:34:01;8.10;99.90
24326;DHT22;12448;45.532;5.290;2024-02-21T08:36:31;8.10;99.90
24326;DHT22;12448;45.532;5.290;2024-02-21T08:38:58;8.10;99.90
24326;DHT22;12448;45.532;5.290;2024-02-21T08:41:24;8.10;99.90
24326;DHT22;12448;45.532;5.290;2024-02-21T08:43:51;8.40;99.90
24326;DHT22;12448;45.532;5.290;2024-02-21T08:46:17;8.20;99.90
24326;DHT22;12448;45.532;5.290;2024-02-21T08:48:43;8.80;99.90
24326;DHT22;12448;45.532;5.290;2024-02-21T08:51:12;8.20;99.90
24326;DHT22;12448;45.532;5.290;2024-02-21T08:53:37;8.30;99.90
24326;DHT22;12448;45.532;5.290;2024-02-21T08:56:04;8.30;99.90
24326;DHT22;12448;45.532;5.290;2024-02-21T08:58:30;8.30;99.90
24326;DHT22;12448;45.532;5.290;2024-02-21T09:00:55;8.30;99.90
24326;DHT22;12448;45.532;5.290;2024-02-21T09:03:22;8.30;99.90
24326;DHT22;12448;45.532;5.290;2024-02-21T09:05:48;8.40;99.90
24326;DHT22;12448;45.532;5.290;2024-02-21T09:08:13;8.40;99.90
24326;DHT22;12448;45.532;5.290;2024-02-21T09:10:42;8.30;99.90
24326;DHT22;12448;45.532;5.290;2024-02-21T09:13:08;8.40;99.90
24326;DHT22;12448;45.532;5.290;2024-02-21T09:15:34;8.40;99.90
24326;DHT22;12448;45.532;5.290;2024-02-21T09:17:59;8.40;99.90
24326;DHT22;12448;45.532;5.290;2024-02-21T09:20:25;8.40;99.90
24326;DHT22;12448;45.532;5.290;2024-02-21T09:22:51;8.50;99.90
24326;DHT22;12448;45.532;5.290;2024-02-21T09:25:18;8.50;99.90
24326;DHT22;12448;45.532;5.290;2024-02-21T09:27:44;8.50;99.90
24326;DHT22;12448;45.532;5.290;2024-02-21T09:30:11;8.70;99.90
24326;DHT22;12448;45.532;5.290;2024-02-21T09:32:38;8.70;99.90
24326;DHT22;12448;45.532;5.290;2024-02-21T09:35:04;9.10;99.90
24326;DHT22;12448;45.532;5.290;2024-02-21T09:37:33;8.90;99.90
24326;DHT22;12448;45.532;5.290;2024-02-21T09:39:59;9.00;99.90
24326;DHT22;12448;45.532;5.290;2024-02-21T09:42:37;9.20;99.90
24326;DHT22;12448;45.532;5.290;2024-02-21T09:45:14;9.10;99.90
24326;DHT22;12448;45.532;5.290;2024-02-21T09:50:32;9.30;99.90
24326;DHT22;12448;45.532;5.290;2024-02-21T09:53:00;9.40;99.90
24326;DHT22;12448;45.532;5.290;2024-02-21T09:55:29;9.40;99.90
24326;DHT22;12448;45.532;5.290;2024-02-21T09:57:56;9.60;99.90
24326;DHT22;12448;45.532;5.290;2024-02-21T10:00:23;9.60;99.90
24326;DHT22;12448;45.532;5.290;2024-02-21T10:02:49;9.70;99.90
24326;DHT22;12448;45.532;5.290;2024-02-21T10:05:15;9.90;99.90
24326;DHT22;12448;45.532;5.290;2024-02-21T10:07:41;10.00;99.90
24326;DHT22;12448;45.532;5.290;2024-02-21T10:10:08;10.00;99.90
24326;DHT22;12448;45.532;5.290;2024-02-21T10:12:34;10.10;99.90
24326;DHT22;12448;45.532;5.290;2024-02-21T10:15:01;10.20;99.90
24326;DHT22;12448;45.532;5.290;2024-02-21T10:17:27;10.60;99.90
24326;DHT22;12448;45.532;5.290;2024-02-21T10:19:52;10.40;99.90
24326;DHT22;12448;45.532;5.290;2024-02-21T10:22:18;10.40;99.90
24326;DHT22;12448;45.532;5.290;2024-02-21T10:24:46;10.50;99.90
24326;DHT22;12448;45.532;5.290;2024-02-21T10:27:12;10.50;99.90
24326;DHT22;12448;45.532;5.290;2024-02-21T10:29:38;10.60;99.90
24326;DHT22;12448;45.532;5.290;2024-02-21T10:34:31;10.70;99.90
24326;DHT22;12448;45.532;5.290;2024-02-21T10:37:03;10.80;99.50
24326;DHT22;12448;45.532;5.290;2024-02-21T10:39:31;10.80;99.40
24326;DHT22;12448;45.532;5.290;2024-02-21T10:42:00;10.90;99.40
24326;DHT22;12448;45.532;5.290;2024-02-21T10:44:31;11.00;99.30
24326;DHT22;12448;45.532;5.290;2024-02-21T10:46:58;11.00;99.30
24326;DHT22;12448;45.532;5.290;2024-02-21T10:49:27;11.10;99.20
24326;DHT22;12448;45.532;5.290;2024-02-21T10:52:13;11.10;98.90
24326;DHT22;12448;45.532;5.290;2024-02-21T10:54:56;11.20;98.60
24326;DHT22;12448;45.532;5.290;2024-02-21T10:57:22;11.30;98.20
24326;DHT22;12448;45.532;5.290;2024-02-21T10:59:49;11.30;97.90
24326;DHT22;12448;45.532;5.290;2024-02-21T11:02:15;11.40;97.30
24326;DHT22;12448;45.532;5.290;2024-02-21T11:04:41;11.40;97.30
24326;DHT22;12448;45.532;5.290;2024-02-21T11:07:08;11.50;96.80
24326;DHT22;12448;45.532;5.290;2024-02-21T11:09:34;11.50;96.10
24326;DHT22;12448;45.532;5.290;2024-02-21T11:12:03;11.60;96.30
24326;DHT22;12448;45.532;5.290;2024-02-21T11:14:29;11.70;96.30
24326;DHT22;12448;45.532;5.290;2024-02-21T11:16:58;11.80;96.10
24326;DHT22;12448;45.532;5.290;2024-02-21T11:19:28;11.80;96.20
24326;DHT22;12448;45.532;5.290;2024-02-21T11:21:55;11.90;96.20
24326;DHT22;12448;45.532;5.290;2024-02-21T11:24:32;11.90;96.00
24326;DHT22;12448;45.532;5.290;2024-02-21T11:29:46;12.00;95.20
24326;DHT22;12448;45.532;5.290;2024-02-21T11:32:15;12.10;95.10
24326;DHT22;12448;45.532;5.290;2024-02-21T11:34:41;12.10;95.00
24326;DHT22;12448;45.532;5.290;2024-02-21T11:37:13;12.20;94.90
24326;DHT22;12448;45.532;5.290;2024-02-21T11:39:42;12.30;94.70
24326;DHT22;12448;45.532;5.290;2024-02-21T11:42:09;12.30;94.50
24326;DHT22;12448;45.532;5.290;2024-02-21T11:44:36;12.30;94.10
24326;DHT22;12448;45.532;5.290;2024-02-21T11:47:11;12.40;93.60
24326;DHT22;12448;45.532;5.290;2024-02-21T11:49:45;12.40;93.10
24326;DHT22;12448;45.532;5.290;2024-02-21T11:52:12;12.40;92.40
24326;DHT22;12448;45.532;5.290;2024-02-21T11:54:40;12.50;92.40
24326;DHT22;12448;45.532;5.290;2024-02-21T11:57:07;12.50;92.20
24326;DHT22;12448;45.532;5.290;2024-02-21T11:59:33;12.50;92.00
24326;DHT22;12448;45.532;5.290;2024-02-21T12:02:03;12.60;91.90
24326;DHT22;12448;45.532;5.290;2024-02-21T12:04:29;12.60;91.80
24326;DHT22;12448;45.532;5.290;2024-02-21T12:06:58;12.60;91.70
24326;DHT22;12448;45.532;5.290;2024-02-21T12:09:25;12.70;91.20
24326;DHT22;12448;45.532;5.290;2024-02-21T12:12:03;12.60;91.00
24326;DHT22;12448;45.532;5.290;2024-02-21T12:14:31;12.60;90.40
24326;DHT22;12448;45.532;5.290;2024-02-21T12:16:57;12.60;90.90
24326;DHT22;12448;45.532;5.290;2024-02-21T12:19:23;12.60;90.70
24326;DHT22;12448;45.532;5.290;2024-02-21T12:21:49;12.70;90.90
24326;DHT22;12448;45.532;5.290;2024-02-21T12:24:22;12.70;91.10
24326;DHT22;12448;45.532;5.290;2024-02-21T12:26:52;12.70;91.10
24326;DHT22;12448;45.532;5.290;2024-02-21T12:29:22;12.40;90.70
24326;DHT22;12448;45.532;5.290;2024-02-21T12:31:51;12.70;90.50
24326;DHT22;12448;45.532;5.290;2024-02-21T12:34:20;12.70;90.40
24326;DHT22;12448;45.532;5.290;2024-02-21T12:36:47;12.70;90.00
24326;DHT22;12448;45.532;5.290;2024-02-21T12:39:17;12.70;90.20
24326;DHT22;12448;45.532;5.290;2024-02-21T12:41:49;12.70;90.30
24326;DHT22;12448;45.532;5.290;2024-02-21T12:44:15;12.80;90.50
24326;DHT22;12448;45.532;5.290;2024-02-21T12:46:42;12.80;90.10
24326;DHT22;12448;45.532;5.290;2024-02-21T12:49:08;12.80;90.10
24326;DHT22;12448;45.532;5.290;2024-02-21T12:51:34;12.80;90.10
24326;DHT22;12448;45.532;5.290;2024-02-21T12:54:00;12.80;90.00
24326;DHT22;12448;45.532;5.290;2024-02-21T12:56:26;12.80;90.00
24326;DHT22;12448;45.532;5.290;2024-02-21T12:58:56;12.80;90.10
24326;DHT22;12448;45.532;5.290;2024-02-21T13:01:22;12.80;90.40
24326;DHT22;12448;45.532;5.290;2024-02-21T13:03:48;12.80;90.10
24326;DHT22;12448;45.532;5.290;2024-02-21T13:06:13;12.90;89.50
24326;DHT22;12448;45.532;5.290;2024-02-21T13:08:39;12.90;89.40
24326;DHT22;12448;45.532;5.290;2024-02-21T13:11:06;12.90;89.70
24326;DHT22;12448;45.532;5.290;2024-02-21T13:13:31;13.00;89.80
24326;DHT22;12448;45.532;5.290;2024-02-21T13:15:58;12.90;89.00
24326;DHT22;12448;45.532;5.290;2024-02-21T13:18:27;13.00;86.90
24326;DHT22;12448;45.532;5.290;2024-02-21T13:21:01;13.00;85.50
24326;DHT22;12448;45.532;5.290;2024-02-21T13:23:27;13.00;85.20
24326;DHT22;12448;45.532;5.290;2024-02-21T13:25:53;13.00;84.40
24326;DHT22;12448;45.532;5.290;2024-02-21T13:28:19;13.00;83.70
24326;DHT22;12448;45.532;5.290;2024-02-21T13:30:44;13.00;83.60
24326;DHT22;12448;45.532;5.290;2024-02-21T13:33:10;13.00;84.40
24326;DHT22;12448;45.532;5.290;2024-02-21T13:35:36;13.10;83.30
24326;DHT22;12448;45.532;5.290;2024-02-21T13:38:03;13.10;82.90
24326;DHT22;12448;45.532;5.290;2024-02-21T13:40:29;13.10;83.10
24326;DHT22;12448;45.532;5.290;2024-02-21T13:42:55;13.20;83.90
24326;DHT22;12448;45.532;5.290;2024-02-21T13:45:20;13.20;83.10
24326;DHT22;12448;45.532;5.290;2024-02-21T13:47:52;13.30;82.80
24326;DHT22;12448;45.532;5.290;2024-02-21T13:50:19;13.40;81.80
24326;DHT22;12448;45.532;5.290;2024-02-21T13:52:45;13.40;81.80
24326;DHT22;12448;45.532;5.290;2024-02-21T13:55:13;13.40;81.30
24326;DHT22;12448;45.532;5.290;2024-02-21T13:57:39;13.40;79.90
24326;DHT22;12448;45.532;5.290;2024-02-21T14:00:06;13.40;80.50
24326;DHT22;12448;45.532;5.290;2024-02-21T14:02:35;13.40;80.50
24326;DHT22;12448;45.532;5.290;2024-02-21T14:05:01;13.40;81.60
24326;DHT22;12448;45.532;5.290;2024-02-21T14:07:29;13.40;81.50
24326;DHT22;12448;45.532;5.290;2024-02-21T14:09:55;13.40;80.80
24326;DHT22;12448;45.532;5.290;2024-02-21T14:12:20;13.40;80.60
24326;DHT22;12448;45.532;5.290;2024-02-21T14:14:47;13.40;81.70
24326;DHT22;12448;45.532;5.290;2024-02-21T14:17:21;13.30;81.40
24326;DHT22;12448;45.532;5.290;2024-02-21T14:19:53;13.30;81.80
24326;DHT22;12448;45.532;5.290;2024-02-21T14:22:19;13.30;82.20
24326;DHT22;12448;45.532;5.290;2024-02-21T14:24:45;13.30;81.10
24326;DHT22;12448;45.532;5.290;2024-02-21T14:27:13;13.30;80.60
24326;DHT22;12448;45.532;5.290;2024-02-21T14:29:39;13.20;80.30
24326;DHT22;12448;45.532;5.290;2024-02-21T14:32:05;13.20;81.10
24326;DHT22;12448;45.532;5.290;2024-02-21T14:34:32;13.20;81.10
24326;DHT22;12448;45.532;5.290;2024-02-21T14:36:58;13.30;80.80
24326;DHT22;12448;45.532;5.290;2024-02-21T14:39:24;13.20;80.10
24326;DHT22;12448;45.532;5.290;2024-02-21T14:41:49;13.20;79.80
24326;DHT22;12448;45.532;5.290;2024-02-21T14:44:16;13.20;80.60
24326;DHT22;12448;45.532;5.290;2024-02-21T14:46:42;13.20;81.00
24326;DHT22;12448;45.532;5.290;2024-02-21T14:49:07;13.20;80.60
24326;DHT22;12448;45.532;5.290;2024-02-21T14:51:33;13.30;79.80
24326;DHT22;12448;45.532;5.290;2024-02-21T14:53:59;13.20;80.00
24326;DHT22;12448;45.532;5.290;2024-02-21T14:56:25;13.20;79.80
24326;DHT22;12448;45.532;5.290;2024-02-21T14:58:51;13.20;80.60
24326;DHT22;12448;45.532;5.290;2024-02-21T15:01:16;13.20;80.10
24326;DHT22;12448;45.532;5.290;2024-02-21T15:03:42;13.20;80.80
24326;DHT22;12448;45.532;5.290;2024-02-21T15:06:14;13.20;81.10
24326;DHT22;12448;45.532;5.290;2024-02-21T15:08:39;13.30;80.10
24326;DHT22;12448;45.532;5.290;2024-02-21T15:11:05;13.30;79.60
24326;DHT22;12448;45.532;5.290;2024-02-21T15:13:31;13.20;79.80
24326;DHT22;12448;45.532;5.290;2024-02-21T15:15:57;13.20;79.60
24326;DHT22;12448;45.532;5.290;2024-02-21T15:18:22;13.30;79.50
24326;DHT22;12448;45.532;5.290;2024-02-21T15:20:48;13.20;79.10
24326;DHT22;12448;45.532;5.290;2024-02-21T15:23:14;13.30;78.90
24326;DHT22;12448;45.532;5.290;2024-02-21T15:25:52;13.20;79.10
24326;DHT22;12448;45.532;5.290;2024-02-21T15:28:18;13.20;79.50
24326;DHT22;12448;45.532;5.290;2024-02-21T15:30:44;13.20;79.50
24326;DHT22;12448;45.532;5.290;2024-02-21T15:33:19;13.20;79.60
24326;DHT22;12448;45.532;5.290;2024-02-21T15:35:58;13.20;79.40
24326;DHT22;12448;45.532;5.290;2024-02-21T15:38:27;13.10;79.70
24326;DHT22;12448;45.532;5.290;2024-02-21T15:40:58;13.10;79.40
24326;DHT22;12448;45.532;5.290;2024-02-21T15:43:24;13.10;79.70
24326;DHT22;12448;45.532;5.290;2024-02-21T15:45:52;13.10;79.20